Time;durP1;ratioP1;P1;durP2;ratioP2;P2;SDS_P1;SDS_P2;PMS_P1;PMS_P2;Temp;Humidity;BMP_temperature;BMP_pressure;BME280_temperature;BME280_humidity;BME280_pressure;Samples;Min_cycle;Max_cycle;Signal;HPM_P1;HPM_P2
2023/01/31 00:01:21;;;;;;;18.63;4.33;;;4.00;99.90;;;;;;4983806;28;20640;-69
2023/01/31 00:03:52;;;;;;;15.17;3.70;;;4.00;99.90;;;;;;4981910;28;20211;-69
2023/01/31 00:06:24;;;;;;;22.93;4.30;;;4.00;99.90;;;;;;4983689;28;20671;-70
2023/01/31 00:08:52;;;;;;;14.50;3.23;;;4.00;99.90;;;;;;4988086;28;20222;-69
2023/01/31 00:11:21;;;;;;;20.43;3.60;;;4.00;99.90;;;;;;4983077;28;20211;-69
2023/01/31 00:13:48;;;;;;;16.03;3.90;;;4.00;99.90;;;;;;4986470;28;20439;-69
2023/01/31 00:16:15;;;;;;;21.07;3.70;;;4.00;99.90;;;;;;4983047;28;20246;-69
2023/01/31 00:18:43;;;;;;;17.77;4.10;;;4.00;99.90;;;;;;4978877;28;20227;-69
2023/01/31 00:21:15;;;;;;;24.27;4.53;;;4.00;99.90;;;;;;4983785;28;20222;-69
2023/01/31 00:23:44;;;;;;;17.23;3.67;;;4.00;99.90;;;;;;4990107;28;20230;-69
2023/01/31 00:26:16;;;;;;;18.93;3.30;;;4.00;99.90;;;;;;4981501;28;20207;-69
2023/01/31 00:28:44;;;;;;;25.10;4.00;;;4.00;99.90;;;;;;4985785;28;20207;-69
2023/01/31 00:31:13;;;;;;;15.93;4.90;;;4.10;99.90;;;;;;4986802;28;20207;-69
2023/01/31 00:33:42;;;;;;;10.97;2.70;;;4.10;99.90;;;;;;4990233;28;20219;-69
2023/01/31 00:36:14;;;;;;;12.80;3.50;;;4.00;99.90;;;;;;4989860;28;20226;-69
2023/01/31 00:38:42;;;;;;;21.70;4.80;;;4.00;99.90;;;;;;4990312;28;20210;-69
2023/01/31 00:41:08;;;;;;;24.63;4.07;;;4.00;99.90;;;;;;4975403;28;20613;-69
2023/01/31 00:43:35;;;;;;;23.33;3.97;;;4.00;99.90;;;;;;4989061;28;20191;-70
2023/01/31 00:46:03;;;;;;;16.80;2.93;;;4.00;99.90;;;;;;4986523;28;20202;-69
2023/01/31 00:48:30;;;;;;;15.03;3.10;;;4.10;99.90;;;;;;4976034;28;20246;-69
2023/01/31 00:50:57;;;;;;;15.83;3.37;;;4.10;99.90;;;;;;4986396;28;20199;-69
2023/01/31 00:53:24;;;;;;;20.17;3.23;;;4.10;99.90;;;;;;4978984;28;20203;-69
2023/01/31 00:55:53;;;;;;;14.60;3.30;;;4.10;99.90;;;;;;4987681;28;20230;-69
2023/01/31 00:58:20;;;;;;;23.17;3.83;;;4.10;99.90;;;;;;4989633;28;20289;-69
2023/01/31 01:00:47;;;;;;;23.83;4.87;;;4.00;99.90;;;;;;4985165;28;20325;-69
2023/01/31 01:03:14;;;;;;;13.93;3.93;;;4.00;99.90;;;;;;4989376;28;20557;-69
2023/01/31 01:05:40;;;;;;;16.10;4.07;;;3.90;99.90;;;;;;4967683;28;20199;-69
2023/01/31 01:08:07;;;;;;;18.23;3.57;;;3.90;99.90;;;;;;4971327;28;20211;-69
2023/01/31 01:10:34;;;;;;;18.20;3.87;;;3.90;99.90;;;;;;4988294;28;20231;-69
2023/01/31 01:13:01;;;;;;;15.33;4.00;;;3.90;99.90;;;;;;4988044;28;20245;-69
2023/01/31 01:15:28;;;;;;;22.67;4.43;;;3.80;99.90;;;;;;4985508;28;20242;-69
2023/01/31 01:17:55;;;;;;;18.77;4.33;;;3.80;99.90;;;;;;4988753;28;20326;-69
2023/01/31 01:20:22;;;;;;;20.07;4.13;;;3.70;99.90;;;;;;4986115;28;20766;-69
2023/01/31 01:22:49;;;;;;;15.67;3.77;;;3.70;99.90;;;;;;4988328;28;20203;-69
2023/01/31 01:25:16;;;;;;;12.00;3.33;;;3.70;99.90;;;;;;4990296;28;20197;-69
2023/01/31 01:27:43;;;;;;;20.50;4.17;;;3.60;99.90;;;;;;4989232;28;20216;-69
2023/01/31 01:30:10;;;;;;;22.37;3.87;;;3.60;99.90;;;;;;4985690;28;20295;-69
2023/01/31 01:32:37;;;;;;;20.70;3.87;;;3.60;99.90;;;;;;4987791;28;20217;-69
2023/01/31 01:35:05;;;;;;;15.57;3.13;;;3.50;99.90;;;;;;4985464;28;20341;-69
2023/01/31 01:37:32;;;;;;;32.53;5.17;;;3.50;99.90;;;;;;4989345;28;20672;-69
2023/01/31 01:39:59;;;;;;;20.93;3.63;;;3.50;99.90;;;;;;4986134;28;20211;-69
2023/01/31 01:42:26;;;;;;;15.77;3.70;;;3.50;99.90;;;;;;4988194;28;20730;-69
2023/01/31 01:44:56;;;;;;;16.87;3.20;;;3.50;99.90;;;;;;4986529;28;20220;-69
2023/01/31 01:47:49;;;;;;;17.20;3.40;;;3.50;99.90;;;;;;4984756;28;20248;-69
2023/01/31 01:50:20;;;;;;;16.93;3.30;;;3.50;99.90;;;;;;4988485;28;20209;-69
2023/01/31 01:52:58;;;;;;;22.80;3.73;;;3.50;99.90;;;;;;4988991;28;20240;-69
2023/01/31 01:55:36;;;;;;;19.10;4.10;;;3.60;99.90;;;;;;4994077;28;20211;-69
2023/01/31 01:58:10;;;;;;;13.10;3.37;;;3.60;99.90;;;;;;4991095;28;20302;-69
2023/01/31 02:00:37;;;;;;;12.03;3.60;;;3.60;99.90;;;;;;4986302;28;20317;-69
2023/01/31 02:03:06;;;;;;;21.67;4.37;;;3.60;99.90;;;;;;4971002;28;20216;-69
2023/01/31 02:05:39;;;;;;;20.73;4.10;;;3.60;99.90;;;;;;4986441;28;20640;-68
2023/01/31 02:08:06;;;;;;;20.60;3.50;;;3.70;99.90;;;;;;4974390;28;20262;-69
2023/01/31 02:10:54;;;;;;;17.83;4.17;;;3.60;99.90;;;;;;4989811;28;20212;-69
2023/01/31 02:13:21;;;;;;;23.53;4.10;;;3.70;99.90;;;;;;4984266;28;20210;-69
2023/01/31 02:15:48;;;;;;;12.80;3.13;;;3.70;99.90;;;;;;4987411;28;20223;-69
2023/01/31 02:18:16;;;;;;;14.97;3.00;;;3.70;99.90;;;;;;4986860;28;20271;-69
2023/01/31 02:21:14;;;;;;;21.33;3.83;;;3.70;99.90;;;;;;4987287;28;20206;-69
2023/01/31 02:24:14;;;;;;;22.73;4.37;;;3.70;99.90;;;;;;4988389;28;20293;-69
2023/01/31 02:27:02;;;;;;;17.47;3.57;;;3.70;99.90;;;;;;4985285;28;20223;-69
2023/01/31 02:29:48;;;;;;;14.63;3.33;;;3.70;99.90;;;;;;4988869;28;20250;-69
2023/01/31 02:32:32;;;;;;;18.30;3.90;;;3.80;99.90;;;;;;4986165;28;20251;-69
2023/01/31 02:35:36;;;;;;;20.47;4.13;;;3.80;99.90;;;;;;4987122;28;20209;-69
2023/01/31 02:38:16;;;;;;;21.93;4.20;;;3.90;99.90;;;;;;4954250;28;20209;-69
2023/01/31 02:40:55;;;;;;;23.63;4.37;;;3.90;99.90;;;;;;4986635;28;20213;-69
2023/01/31 02:43:24;;;;;;;21.93;4.23;;;3.90;99.90;;;;;;4970175;28;20672;-69
2023/01/31 02:46:07;;;;;;;17.73;3.40;;;4.00;99.90;;;;;;4969160;28;20986;-69
2023/01/31 02:48:52;;;;;;;16.43;3.30;;;4.00;99.90;;;;;;4989137;28;20563;-69
2023/01/31 02:51:23;;;;;;;16.03;4.03;;;4.00;99.90;;;;;;4967436;28;20214;-69
2023/01/31 02:54:00;;;;;;;18.40;3.50;;;4.10;99.90;;;;;;4966652;28;20218;-69
2023/01/31 02:56:30;;;;;;;15.33;4.10;;;4.10;99.90;;;;;;4988930;28;20322;-69
2023/01/31 02:59:03;;;;;;;14.20;3.40;;;4.20;99.90;;;;;;4987262;28;20246;-69
2023/01/31 03:01:34;;;;;;;17.47;3.77;;;4.20;99.90;;;;;;4984316;28;20660;-69
2023/01/31 03:04:06;;;;;;;15.50;3.60;;;4.20;99.90;;;;;;4983593;28;20330;-69
2023/01/31 03:06:36;;;;;;;22.47;3.80;;;4.30;99.90;;;;;;4984630;28;20204;-69
2023/01/31 03:09:05;;;;;;;13.50;4.20;;;4.30;99.90;;;;;;4984171;28;20232;-69
2023/01/31 03:11:54;;;;;;;14.57;3.57;;;4.40;99.90;;;;;;4989984;28;20247;-69
2023/01/31 03:14:26;;;;;;;28.47;4.50;;;4.40;99.90;;;;;;4986507;28;20236;-69
2023/01/31 03:19:52;;;;;;;19.73;4.10;;;4.50;99.90;;;;;;4987351;28;20196;-69
2023/01/31 03:22:26;;;;;;;12.67;3.93;;;4.50;99.90;;;;;;4984135;28;20736;-69
2023/01/31 03:24:53;;;;;;;17.80;4.10;;;4.50;99.90;;;;;;4985592;28;20207;-69
2023/01/31 03:27:21;;;;;;;24.27;4.40;;;4.60;99.90;;;;;;4987005;28;20199;-70
2023/01/31 03:29:48;;;;;;;19.73;4.53;;;4.60;99.90;;;;;;4981706;28;20203;-69
2023/01/31 03:32:49;;;;;;;13.57;4.63;;;4.70;99.90;;;;;;4983940;28;20298;-69
2023/01/31 03:35:17;;;;;;;24.10;5.73;;;4.70;99.90;;;;;;4971276;28;20199;-69
2023/01/31 03:37:59;;;;;;;24.57;6.60;;;4.80;99.90;;;;;;4967925;28;20262;-69
2023/01/31 03:40:45;;;;;;;25.40;5.67;;;4.80;99.90;;;;;;4983031;28;20608;-69
2023/01/31 03:43:26;;;;;;;19.70;5.67;;;4.90;99.90;;;;;;4981600;28;20207;-69
2023/01/31 03:45:58;;;;;;;26.90;6.10;;;4.90;99.90;;;;;;4986721;28;20228;-69
2023/01/31 03:48:30;;;;;;;27.90;6.03;;;5.00;99.90;;;;;;4968265;28;20620;-69
2023/01/31 03:51:00;;;;;;;25.83;5.50;;;5.00;99.90;;;;;;4963417;28;20211;-69
2023/01/31 03:53:42;;;;;;;26.67;6.47;;;5.00;99.90;;;;;;4986076;28;20243;-69
2023/01/31 03:56:40;;;;;;;19.30;5.73;;;5.10;99.90;;;;;;4991797;28;20583;-69
2023/01/31 03:59:12;;;;;;;28.10;6.40;;;5.20;99.90;;;;;;4983641;28;20354;-69
2023/01/31 04:01:44;;;;;;;22.80;5.93;;;5.20;99.90;;;;;;4981341;28;20600;-69
2023/01/31 04:04:16;;;;;;;20.70;5.00;;;5.30;99.90;;;;;;4989708;28;20587;-69
2023/01/31 04:06:42;;;;;;;25.37;5.77;;;5.20;99.90;;;;;;4991643;28;20870;-69
2023/01/31 04:09:09;;;;;;;24.43;6.13;;;5.30;99.90;;;;;;4991081;28;20559;-69
2023/01/31 04:11:38;;;;;;;29.47;6.47;;;5.30;99.90;;;;;;4992437;28;20772;-69
2023/01/31 04:14:06;;;;;;;29.90;6.97;;;5.30;99.90;;;;;;4988542;28;20203;-69
2023/01/31 04:16:32;;;;;;;28.40;7.73;;;5.30;99.90;;;;;;4988731;28;20222;-69
2023/01/31 04:18:59;;;;;;;25.43;8.30;;;5.40;99.90;;;;;;4991381;28;20282;-69
2023/01/31 04:21:26;;;;;;;29.53;6.87;;;5.40;99.90;;;;;;4990995;28;20213;-69
2023/01/31 04:23:53;;;;;;;28.03;7.17;;;5.40;99.90;;;;;;4992307;28;20592;-69
2023/01/31 04:26:19;;;;;;;28.67;7.70;;;5.40;99.90;;;;;;4992354;28;20206;-69
2023/01/31 04:28:46;;;;;;;31.07;7.13;;;5.40;99.90;;;;;;4994374;28;20611;-69
2023/01/31 04:31:13;;;;;;;23.93;7.77;;;5.40;99.90;;;;;;4987812;28;20669;-69
2023/01/31 04:33:40;;;;;;;24.70;7.73;;;5.40;99.90;;;;;;4990432;28;20207;-69
2023/01/31 04:36:07;;;;;;;37.97;8.13;;;5.40;99.90;;;;;;4989078;28;20201;-69
2023/01/31 04:38:34;;;;;;;29.93;8.00;;;5.40;99.90;;;;;;4995338;28;20616;-69
2023/01/31 04:41:01;;;;;;;28.77;7.70;;;5.40;99.90;;;;;;4988536;28;20633;-70
2023/01/31 04:43:28;;;;;;;30.47;9.43;;;5.40;99.90;;;;;;4994919;28;20210;-69
2023/01/31 04:45:54;;;;;;;30.47;8.47;;;5.40;99.90;;;;;;4987868;28;20490;-69
2023/01/31 04:48:21;;;;;;;28.90;9.17;;;5.40;99.90;;;;;;4991305;28;20479;-69
2023/01/31 04:50:48;;;;;;;33.37;8.97;;;5.40;99.90;;;;;;4993720;28;20212;-69
2023/01/31 04:53:15;;;;;;;29.30;8.70;;;5.50;99.90;;;;;;4992469;28;20298;-70
2023/01/31 04:55:42;;;;;;;26.93;8.00;;;5.40;99.90;;;;;;4978256;28;20640;-69
2023/01/31 04:58:09;;;;;;;25.77;8.77;;;5.40;99.90;;;;;;4997074;28;20215;-70
2023/01/31 05:00:35;;;;;;;27.10;8.13;;;5.40;99.90;;;;;;4988432;28;20233;-69
2023/01/31 05:03:02;;;;;;;30.13;8.67;;;5.40;99.90;;;;;;4991624;28;20215;-69
2023/01/31 05:05:31;;;;;;;31.10;8.93;;;5.40;99.90;;;;;;4990083;28;20215;-70
2023/01/31 05:08:00;;;;;;;33.93;9.30;;;5.40;99.90;;;;;;4991009;28;20207;-69
2023/01/31 05:10:27;;;;;;;30.33;8.40;;;5.50;99.90;;;;;;4991914;28;20609;-70
2023/01/31 05:12:54;;;;;;;34.07;10.47;;;5.40;99.90;;;;;;4992386;28;20212;-69
2023/01/31 05:15:21;;;;;;;31.03;8.57;;;5.40;99.90;;;;;;4986821;28;20210;-69
2023/01/31 05:17:52;;;;;;;31.67;9.97;;;5.40;99.90;;;;;;4988954;28;20229;-69
2023/01/31 05:20:20;;;;;;;29.90;10.00;;;5.50;99.90;;;;;;4985755;28;20205;-69
2023/01/31 05:22:48;;;;;;;33.67;10.57;;;5.40;99.90;;;;;;4988412;28;20615;-69
2023/01/31 05:25:14;;;;;;;40.27;10.77;;;5.40;99.90;;;;;;4988187;28;20196;-69
2023/01/31 05:27:43;;;;;;;32.90;10.37;;;5.40;99.90;;;;;;4989631;28;20204;-69
2023/01/31 05:30:11;;;;;;;29.53;11.00;;;5.40;99.90;;;;;;4970304;28;20255;-70
2023/01/31 05:32:38;;;;;;;32.77;10.37;;;5.40;99.90;;;;;;4987522;28;20230;-69
2023/01/31 05:35:05;;;;;;;28.77;10.73;;;5.40;99.90;;;;;;4981786;28;20291;-69
2023/01/31 05:37:32;;;;;;;39.43;11.87;;;5.40;99.90;;;;;;4989543;28;20225;-69
2023/01/31 05:39:59;;;;;;;38.90;12.83;;;5.40;99.90;;;;;;4970982;28;20246;-69
2023/01/31 05:42:25;;;;;;;34.80;12.37;;;5.40;99.90;;;;;;4987518;28;20250;-70
2023/01/31 05:44:52;;;;;;;33.47;11.87;;;5.40;99.90;;;;;;4985222;28;20215;-69
2023/01/31 05:47:19;;;;;;;41.70;12.50;;;5.40;99.90;;;;;;4985966;28;20302;-70
2023/01/31 05:49:45;;;;;;;37.80;11.47;;;5.50;99.90;;;;;;4984310;28;20653;-69
2023/01/31 05:52:12;;;;;;;34.87;12.23;;;5.40;99.90;;;;;;4987565;28;20215;-69
2023/01/31 05:54:38;;;;;;;35.70;12.10;;;5.50;99.90;;;;;;4987837;28;20676;-69
2023/01/31 05:57:06;;;;;;;38.83;13.83;;;5.50;99.90;;;;;;4988625;28;20629;-69
2023/01/31 05:59:33;;;;;;;49.60;14.33;;;5.50;99.90;;;;;;4985153;28;20250;-69
2023/01/31 06:01:59;;;;;;;44.47;14.30;;;5.50;99.90;;;;;;4965657;28;20228;-70
2023/01/31 06:04:26;;;;;;;40.30;15.37;;;5.60;99.90;;;;;;4988358;28;20207;-70
2023/01/31 06:06:53;;;;;;;41.53;15.63;;;5.60;99.90;;;;;;4990319;28;20203;-70
2023/01/31 06:09:20;;;;;;;37.60;14.30;;;5.60;99.90;;;;;;4979879;28;20216;-69
2023/01/31 06:11:46;;;;;;;39.10;13.43;;;5.60;99.90;;;;;;4987892;28;20199;-69
2023/01/31 06:14:13;;;;;;;32.70;13.17;;;5.60;99.90;;;;;;4985059;28;20322;-70
2023/01/31 06:16:39;;;;;;;33.13;13.43;;;5.60;99.90;;;;;;4988155;28;20221;-71
2023/01/31 06:19:06;;;;;;;40.23;12.60;;;5.60;99.90;;;;;;4974480;28;20220;-69
2023/01/31 06:21:33;;;;;;;39.13;13.80;;;5.70;99.90;;;;;;4986750;28;20199;-69
2023/01/31 06:24:00;;;;;;;42.60;13.60;;;5.70;99.90;;;;;;4986360;28;20648;-69
2023/01/31 06:26:27;;;;;;;36.23;13.43;;;5.70;99.90;;;;;;4988919;28;20200;-69
2023/01/31 06:28:54;;;;;;;38.87;14.40;;;5.70;99.90;;;;;;4985520;28;20196;-69
2023/01/31 06:31:21;;;;;;;36.67;14.50;;;5.70;99.90;;;;;;4985422;28;20321;-69
2023/01/31 06:33:48;;;;;;;40.53;13.33;;;5.70;99.90;;;;;;4973219;28;20739;-69
2023/01/31 06:36:15;;;;;;;32.37;14.13;;;5.70;99.90;;;;;;4988242;28;20207;-69
2023/01/31 06:38:50;;;;;;;38.73;13.10;;;5.70;99.90;;;;;;4987678;28;20346;-70
2023/01/31 06:41:20;;;;;;;37.03;12.90;;;5.80;99.90;;;;;;4989911;28;20762;-68
2023/01/31 06:43:47;;;;;;;31.00;11.63;;;5.80;99.90;;;;;;4989881;28;20209;-68
2023/01/31 06:46:14;;;;;;;36.23;13.40;;;5.80;99.90;;;;;;4990605;28;20676;-69
2023/01/31 06:48:41;;;;;;;35.63;11.57;;;5.80;99.90;;;;;;4990312;28;20616;-67
2023/01/31 06:51:10;;;;;;;30.53;10.87;;;5.80;99.90;;;;;;4985966;28;20301;-68
2023/01/31 06:53:37;;;;;;;58.03;13.10;;;5.80;99.90;;;;;;4985452;28;20198;-68
2023/01/31 06:56:04;;;;;;;26.40;11.53;;;5.80;99.90;;;;;;4989427;28;20292;-69
2023/01/31 06:58:32;;;;;;;33.97;12.57;;;5.80;99.90;;;;;;4988733;28;20246;-68
2023/01/31 07:01:06;;;;;;;34.47;12.27;;;5.80;99.90;;;;;;4984970;28;21652;-70
2023/01/31 07:03:33;;;;;;;38.97;11.53;;;5.80;99.90;;;;;;4988796;28;20219;-69
2023/01/31 07:06:00;;;;;;;31.60;11.97;;;5.80;99.90;;;;;;4988780;28;20261;-69
2023/01/31 07:08:27;;;;;;;36.97;12.43;;;5.80;99.90;;;;;;4988506;28;20200;-69
2023/01/31 07:10:54;;;;;;;43.50;13.03;;;5.80;99.90;;;;;;4986322;28;20877;-68
2023/01/31 07:13:21;;;;;;;33.83;12.47;;;5.80;99.90;;;;;;4987660;28;20304;-68
2023/01/31 07:15:47;;;;;;;28.33;11.07;;;5.80;99.90;;;;;;4988319;28;20213;-69
2023/01/31 07:18:14;;;;;;;28.70;11.23;;;5.80;99.90;;;;;;4989506;28;20654;-68
2023/01/31 07:20:42;;;;;;;27.77;11.23;;;5.80;99.90;;;;;;4987429;28;20203;-68
2023/01/31 07:23:08;;;;;;;29.00;12.07;;;5.80;99.90;;;;;;4971695;28;20204;-68
2023/01/31 07:25:35;;;;;;;27.30;10.63;;;5.80;99.90;;;;;;4980064;28;20211;-68
2023/01/31 07:28:03;;;;;;;27.33;9.83;;;5.80;99.90;;;;;;4985247;28;20710;-68
2023/01/31 07:30:30;;;;;;;35.63;9.80;;;5.80;99.90;;;;;;4988053;28;20534;-68
2023/01/31 07:32:56;;;;;;;28.50;10.00;;;5.80;99.90;;;;;;4987560;28;20228;-68
2023/01/31 07:35:23;;;;;;;24.37;10.53;;;5.80;99.90;;;;;;4986397;28;21405;-68
2023/01/31 07:37:53;;;;;;;27.70;9.97;;;5.80;99.90;;;;;;4990094;28;20223;-69
2023/01/31 07:40:21;;;;;;;27.60;9.63;;;5.80;99.90;;;;;;4988222;28;20212;-70
2023/01/31 07:42:47;;;;;;;56.83;10.53;;;5.80;99.90;;;;;;4989393;28;20204;-69
2023/01/31 07:45:15;;;;;;;28.93;10.07;;;5.80;99.90;;;;;;4993984;28;20206;-69
2023/01/31 07:47:50;;;;;;;37.67;9.60;;;5.80;99.90;;;;;;4989233;28;20252;-69
2023/01/31 07:50:17;;;;;;;31.33;9.13;;;5.80;99.90;;;;;;4988848;28;20253;-69
2023/01/31 07:52:44;;;;;;;36.43;9.80;;;5.80;99.90;;;;;;4977146;28;20211;-69
2023/01/31 07:55:10;;;;;;;27.83;8.17;;;5.80;99.90;;;;;;4987795;28;20231;-68
2023/01/31 07:57:37;;;;;;;24.47;9.00;;;5.90;99.90;;;;;;4996828;28;20310;-69
2023/01/31 08:03:31;;;;;;;29.43;10.27;;;5.90;99.90;;;;;;4983083;28;20202;-70
2023/01/31 08:05:36;;;;;;;24.67;8.80;;;5.90;99.90;;;;;;4984863;28;20204;-69
2023/01/31 08:08:09;;;;;;;24.27;9.03;;;5.90;99.90;;;;;;4988597;28;20209;-69
2023/01/31 08:10:36;;;;;;;32.50;9.43;;;6.00;99.90;;;;;;4966400;28;20308;-68
2023/01/31 08:13:03;;;;;;;35.57;9.27;;;6.00;99.90;;;;;;4993751;28;20219;-69
2023/01/31 08:15:29;;;;;;;29.70;9.13;;;6.00;99.90;;;;;;4989955;28;20229;-68
2023/01/31 08:17:56;;;;;;;28.60;9.67;;;6.10;99.90;;;;;;4990095;28;20295;-68
2023/01/31 08:20:23;;;;;;;28.23;8.73;;;6.10;99.90;;;;;;4985983;28;20295;-68
2023/01/31 08:22:50;;;;;;;37.00;11.03;;;6.10;99.90;;;;;;4992430;28;20464;-69
2023/01/31 08:25:16;;;;;;;29.80;9.97;;;6.10;99.90;;;;;;4986270;28;20592;-68
2023/01/31 08:27:46;;;;;;;30.20;9.53;;;6.20;99.90;;;;;;4992727;28;20206;-68
2023/01/31 08:30:13;;;;;;;29.70;9.23;;;6.20;99.90;;;;;;4982984;28;20827;-70
2023/01/31 08:32:39;;;;;;;24.30;9.50;;;6.20;99.90;;;;;;4984032;28;20218;-69
2023/01/31 08:35:06;;;;;;;29.03;10.97;;;6.30;99.90;;;;;;4985244;28;20211;-70
2023/01/31 08:37:34;;;;;;;28.87;10.53;;;6.30;99.90;;;;;;4987201;28;20310;-69
2023/01/31 08:40:00;;;;;;;25.17;11.03;;;6.30;99.90;;;;;;4987343;28;20683;-69
2023/01/31 08:42:27;;;;;;;24.80;10.30;;;6.30;99.90;;;;;;4982003;28;20280;-69
2023/01/31 08:44:54;;;;;;;32.60;12.27;;;6.40;99.90;;;;;;4984750;28;20653;-68
2023/01/31 08:47:21;;;;;;;29.20;10.67;;;6.40;99.90;;;;;;4983292;28;20298;-69
2023/01/31 08:49:48;;;;;;;36.87;11.63;;;6.40;99.90;;;;;;4989235;28;20233;-70
2023/01/31 08:52:15;;;;;;;32.10;11.97;;;6.40;99.90;;;;;;4989074;28;20217;-67
2023/01/31 08:54:41;;;;;;;29.40;12.17;;;6.40;99.90;;;;;;4990438;28;20209;-69
2023/01/31 08:57:08;;;;;;;26.73;13.27;;;6.50;99.90;;;;;;4995183;28;20208;-70
2023/01/31 08:59:35;;;;;;;24.57;12.30;;;6.50;99.90;;;;;;4986418;28;20232;-69
2023/01/31 09:02:01;;;;;;;28.43;13.13;;;6.60;99.90;;;;;;4988224;28;20318;-69
2023/01/31 09:04:28;;;;;;;29.60;13.23;;;6.50;99.90;;;;;;4988247;28;20204;-69
2023/01/31 09:06:55;;;;;;;29.60;11.83;;;6.60;99.90;;;;;;4981682;28;20201;-69
2023/01/31 09:09:24;;;;;;;29.87;11.53;;;6.60;99.90;;;;;;4988677;28;20206;-69
2023/01/31 09:11:51;;;;;;;28.37;10.67;;;6.60;99.90;;;;;;4991010;28;20757;-69
2023/01/31 09:14:18;;;;;;;29.83;11.10;;;6.60;99.90;;;;;;4986162;28;20245;-69
2023/01/31 09:16:45;;;;;;;28.87;11.27;;;6.70;99.90;;;;;;4987059;28;20545;-70
2023/01/31 09:19:12;;;;;;;28.43;11.73;;;6.60;99.90;;;;;;4986759;28;20225;-69
2023/01/31 09:21:39;;;;;;;24.03;11.07;;;6.60;99.90;;;;;;4987418;28;20209;-69
2023/01/31 09:24:05;;;;;;;22.57;10.00;;;6.70;99.90;;;;;;4990778;28;20207;-69
2023/01/31 09:26:32;;;;;;;23.33;9.97;;;6.70;99.90;;;;;;4987576;28;20233;-71
2023/01/31 09:29:00;;;;;;;25.70;9.77;;;6.70;99.90;;;;;;4989664;28;20206;-69
2023/01/31 09:31:27;;;;;;;28.93;10.30;;;6.80;99.90;;;;;;4988592;28;20207;-69
2023/01/31 09:33:54;;;;;;;26.90;9.40;;;6.80;99.90;;;;;;4991696;28;20246;-69
2023/01/31 09:36:23;;;;;;;26.83;9.53;;;6.80;99.90;;;;;;4991854;28;20717;-69
2023/01/31 09:38:58;;;;;;;22.50;9.50;;;6.80;99.90;;;;;;4989463;28;20248;-69
2023/01/31 09:41:37;;;;;;;22.27;9.57;;;6.80;99.90;;;;;;4986709;28;20198;-69
2023/01/31 09:44:11;;;;;;;27.73;9.73;;;6.80;99.90;;;;;;4989534;28;20195;-69
2023/01/31 09:46:46;;;;;;;27.77;10.27;;;6.80;99.90;;;;;;4975795;28;20253;-69
2023/01/31 09:49:22;;;;;;;20.00;9.07;;;6.90;99.90;;;;;;4986960;28;20286;-69
2023/01/31 09:51:54;;;;;;;22.87;9.40;;;6.90;99.90;;;;;;4987436;28;20208;-69
2023/01/31 09:54:32;;;;;;;21.50;9.97;;;7.00;99.90;;;;;;4969141;28;20653;-69
2023/01/31 09:57:08;;;;;;;24.80;9.13;;;7.00;99.90;;;;;;4988438;28;20208;-68
2023/01/31 09:59:48;;;;;;;28.70;9.50;;;7.00;99.90;;;;;;4990317;28;20293;-69
2023/01/31 10:02:27;;;;;;;22.27;9.23;;;7.10;99.90;;;;;;4987168;28;20225;-69
2023/01/31 10:05:03;;;;;;;21.97;9.73;;;7.10;99.90;;;;;;4989143;28;20231;-69
2023/01/31 10:07:43;;;;;;;25.63;8.83;;;7.20;99.90;;;;;;4989082;28;20205;-68
2023/01/31 10:10:37;;;;;;;23.23;9.10;;;7.20;99.90;;;;;;4987937;28;20235;-68
2023/01/31 10:13:13;;;;;;;25.67;9.10;;;7.20;99.90;;;;;;4986992;28;20290;-69
2023/01/31 10:15:48;;;;;;;23.17;8.67;;;7.10;99.90;;;;;;4970224;28;20203;-69
2023/01/31 10:18:23;;;;;;;18.70;8.83;;;7.20;99.90;;;;;;4982556;28;20281;-69
2023/01/31 10:21:05;;;;;;;21.23;8.80;;;7.30;99.90;;;;;;4973120;28;20207;-69
2023/01/31 10:24:01;;;;;;;24.93;8.83;;;7.30;99.90;;;;;;4984411;28;20205;-69
2023/01/31 10:26:30;;;;;;;21.33;7.90;;;7.40;99.90;;;;;;4986401;28;20210;-69
2023/01/31 10:29:17;;;;;;;17.43;8.70;;;7.40;99.90;;;;;;4984264;28;20210;-69
2023/01/31 10:31:52;;;;;;;20.77;9.17;;;7.40;99.90;;;;;;4982674;28;20237;-69
2023/01/31 10:34:27;;;;;;;21.27;9.13;;;7.40;99.90;;;;;;4987140;28;20701;-69
2023/01/31 10:37:08;;;;;;;20.97;8.70;;;7.40;99.90;;;;;;4989145;28;20208;-70
2023/01/31 10:39:40;;;;;;;17.73;8.63;;;7.50;99.90;;;;;;4990543;28;20663;-69
2023/01/31 10:42:32;;;;;;;27.57;9.53;;;7.60;99.90;;;;;;4986599;28;20672;-69
2023/01/31 10:45:18;;;;;;;21.43;10.37;;;7.60;99.90;;;;;;4991487;28;20205;-69
2023/01/31 10:47:52;;;;;;;24.50;9.37;;;7.60;99.90;;;;;;4984596;28;20652;-70
2023/01/31 10:50:24;;;;;;;17.47;9.10;;;7.70;99.90;;;;;;4988188;28;20197;-67
2023/01/31 10:53:26;;;;;;;23.13;10.20;;;7.60;99.90;;;;;;4987453;28;20642;-70
2023/01/31 10:56:02;;;;;;;26.60;10.23;;;7.70;99.90;;;;;;4905627;28;20261;-69
2023/01/31 10:58:29;;;;;;;26.67;10.47;;;7.70;99.90;;;;;;4987629;28;20228;-69
2023/01/31 11:00:56;;;;;;;25.43;10.03;;;7.70;99.90;;;;;;4984632;28;20773;-70
2023/01/31 11:03:23;;;;;;;21.20;10.33;;;7.70;99.90;;;;;;4987466;28;20232;-68
2023/01/31 11:05:52;;;;;;;23.23;10.57;;;7.60;99.90;;;;;;4986667;28;20230;-69
2023/01/31 11:08:31;;;;;;;26.70;11.13;;;7.70;99.90;;;;;;4984553;28;20578;-69
2023/01/31 11:11:10;;;;;;;25.33;11.00;;;7.60;99.90;;;;;;4968465;28;20227;-69
2023/01/31 11:13:38;;;;;;;25.63;10.87;;;7.70;99.90;;;;;;4985977;28;20202;-69
2023/01/31 11:16:12;;;;;;;28.87;13.33;;;7.70;99.90;;;;;;4968304;28;20281;-69
2023/01/31 11:18:46;;;;;;;25.60;12.27;;;7.70;99.90;;;;;;4971099;28;20231;-68
2023/01/31 11:21:39;;;;;;;32.50;13.13;;;7.60;99.90;;;;;;4986709;28;20207;-69
2023/01/31 11:24:20;;;;;;;23.00;11.90;;;7.60;99.90;;;;;;4981103;28;20676;-69
2023/01/31 11:26:58;;;;;;;26.17;11.80;;;7.60;99.90;;;;;;4987791;28;20215;-69
2023/01/31 11:29:37;;;;;;;30.60;12.87;;;7.60;99.90;;;;;;4988112;28;20200;-69
2023/01/31 11:32:21;;;;;;;27.03;12.47;;;7.60;99.90;;;;;;4983907;28;20299;-69
2023/01/31 11:35:14;;;;;;;24.50;11.83;;;7.60;99.90;;;;;;4969279;28;20236;-68
2023/01/31 11:37:54;;;;;;;27.27;12.33;;;7.60;99.90;;;;;;4974429;28;20207;-69
2023/01/31 11:40:29;;;;;;;23.47;13.17;;;7.60;99.90;;;;;;4988851;28;20237;-69
2023/01/31 11:43:04;;;;;;;26.30;11.90;;;7.60;99.90;;;;;;4986914;28;20199;-68
2023/01/31 11:45:36;;;;;;;28.50;13.20;;;7.60;99.90;;;;;;4985517;28;20293;-69
2023/01/31 11:48:39;;;;;;;21.90;11.97;;;7.60;99.90;;;;;;4982572;28;20239;-69
2023/01/31 11:51:06;;;;;;;20.57;10.90;;;7.60;99.90;;;;;;4968700;28;20637;-68
2023/01/31 11:53:48;;;;;;;18.13;10.53;;;7.60;99.90;;;;;;4985510;28;20203;-69
2023/01/31 11:56:19;;;;;;;16.60;10.87;;;7.60;99.90;;;;;;4986023;28;20307;-68
2023/01/31 11:58:49;;;;;;;20.27;11.97;;;7.50;99.90;;;;;;4985452;28;20462;-68
2023/01/31 12:01:21;;;;;;;18.17;12.57;;;7.50;99.90;;;;;;4983484;28;20255;-68
2023/01/31 12:03:58;;;;;;;25.80;11.17;;;7.50;99.90;;;;;;4984331;28;20688;-68
2023/01/31 12:06:36;;;;;;;19.33;10.00;;;7.40;99.90;;;;;;4971324;28;20231;-68
2023/01/31 12:09:24;;;;;;;18.50;10.47;;;7.50;99.90;;;;;;4983201;28;20210;-69
2023/01/31 12:11:51;;;;;;;19.07;10.50;;;7.50;99.90;;;;;;4985565;28;20254;-68
2023/01/31 12:14:18;;;;;;;19.63;10.17;;;7.50;99.90;;;;;;4982464;28;20269;-68
2023/01/31 12:16:47;;;;;;;20.70;10.13;;;7.50;99.90;;;;;;4983904;28;20695;-68
2023/01/31 12:19:14;;;;;;;24.30;11.30;;;7.50;99.90;;;;;;4988205;28;20231;-68
2023/01/31 12:22:00;;;;;;;19.10;10.33;;;7.50;99.90;;;;;;4983980;28;20246;-68
2023/01/31 12:24:59;;;;;;;24.87;11.10;;;7.60;99.90;;;;;;4985624;28;20199;-68
2023/01/31 12:27:41;;;;;;;22.33;9.50;;;7.70;99.90;;;;;;4972404;28;20614;-68
2023/01/31 12:30:33;;;;;;;22.43;10.03;;;7.70;99.90;;;;;;4986286;28;20584;-68
2023/01/31 12:33:05;;;;;;;28.93;10.17;;;7.80;99.90;;;;;;4971931;28;20334;-68
2023/01/31 12:36:14;;;;;;;22.67;9.47;;;7.90;99.90;;;;;;4982552;28;20211;-69
2023/01/31 12:38:57;;;;;;;26.03;9.33;;;8.00;99.90;;;;;;4992944;28;20579;-69
2023/01/31 12:41:40;;;;;;;18.97;8.50;;;8.10;99.90;;;;;;4985218;28;20211;-69
2023/01/31 12:44:25;;;;;;;23.43;9.33;;;8.10;99.90;;;;;;4987985;28;20201;-69
2023/01/31 12:47:15;;;;;;;28.37;9.37;;;8.20;99.90;;;;;;4989392;28;20254;-69
2023/01/31 12:50:30;;;;;;;22.37;8.97;;;8.20;99.90;;;;;;4992378;28;20220;-70
2023/01/31 12:53:35;;;;;;;18.83;8.07;;;8.30;99.90;;;;;;4946240;28;20275;-69
2023/01/31 12:56:04;;;;;;;19.77;7.73;;;8.30;99.90;;;;;;4912577;29;20208;-69
2023/01/31 12:58:59;;;;;;;21.23;7.37;;;8.40;99.90;;;;;;4903558;29;20653;-69
2023/01/31 13:01:49;;;;;;;25.60;7.57;;;8.40;99.90;;;;;;4974096;28;20272;-68
2023/01/31 13:04:29;;;;;;;18.33;7.47;;;8.40;99.90;;;;;;4991485;28;20278;-68
2023/01/31 13:07:01;;;;;;;23.77;7.33;;;8.50;99.90;;;;;;4988422;28;20288;-69
2023/01/31 13:09:33;;;;;;;18.83;7.13;;;8.60;99.90;;;;;;4988860;28;20300;-68
2023/01/31 13:12:12;;;;;;;17.87;6.67;;;8.60;99.90;;;;;;4970974;28;20233;-69
2023/01/31 13:14:46;;;;;;;19.50;6.67;;;8.70;99.90;;;;;;4988898;28;20230;-68